sensor_id;sensor_type;location;lat;lon;timestamp;pressure;altitude;pressure_sealevel;temperature;humidity
54920;BME280;63804;53.120;8.764;2024-03-17T00:02:09;102478.06;;;7.07;75.13
54920;BME280;63804;53.120;8.764;2024-03-17T00:04:35;102471.72;;;7.13;74.95
54920;BME280;63804;53.120;8.764;2024-03-17T00:07:01;102476.88;;;7.18;75.30
54920;BME280;63804;53.120;8.764;2024-03-17T00:09:27;102479.78;;;7.08;75.28
54920;BME280;63804;53.120;8.764;2024-03-17T00:11:53;102481.25;;;6.89;75.95
54920;BME280;63804;53.120;8.764;2024-03-17T00:14:19;102479.63;;;6.85;76.35
54920;BME280;63804;53.120;8.764;2024-03-17T00:16:45;102477.59;;;6.93;76.10
54920;BME280;63804;53.120;8.764;2024-03-17T00:19:11;102478.22;;;7.01;75.72
54920;BME280;63804;53.120;8.764;2024-03-17T00:21:37;102477.47;;;6.98;75.78
54920;BME280;63804;53.120;8.764;2024-03-17T00:24:03;102481.78;;;7.00;76.14
54920;BME280;63804;53.120;8.764;2024-03-17T00:26:29;102483.47;;;7.03;75.97
54920;BME280;63804;53.120;8.764;2024-03-17T00:28:55;102489.38;;;7.09;75.74
54920;BME280;63804;53.120;8.764;2024-03-17T00:31:21;102489.88;;;6.94;76.06
54920;BME280;63804;53.120;8.764;2024-03-17T00:33:52;102488.16;;;6.93;76.24
54920;BME280;63804;53.120;8.764;2024-03-17T00:36:18;102490.69;;;6.96;76.08
54920;BME280;63804;53.120;8.764;2024-03-17T00:38:44;102484.75;;;6.90;76.04
54920;BME280;63804;53.120;8.764;2024-03-17T00:41:10;102489.28;;;6.84;76.22
54920;BME280;63804;53.120;8.764;2024-03-17T00:43:36;102486.81;;;6.80;76.40
54920;BME280;63804;53.120;8.764;2024-03-17T00:46:03;102488.91;;;6.67;77.10
54920;BME280;63804;53.120;8.764;2024-03-17T00:48:29;102477.72;;;6.61;77.42
54920;BME280;63804;53.120;8.764;2024-03-17T00:50:56;102482.72;;;6.70;77.12
54920;BME280;63804;53.120;8.764;2024-03-17T00:53:22;102485.41;;;6.68;76.88
54920;BME280;63804;53.120;8.764;2024-03-17T00:55:52;102488.59;;;6.79;76.67
54920;BME280;63804;53.120;8.764;2024-03-17T00:58:20;102479.78;;;6.79;76.46
54920;BME280;63804;53.120;8.764;2024-03-17T01:00:47;102482.94;;;6.92;76.12
54920;BME280;63804;53.120;8.764;2024-03-17T01:03:18;102479.31;;;6.96;75.97
54920;BME280;63804;53.120;8.764;2024-03-17T01:05:45;102486.56;;;6.88;76.15
54920;BME280;63804;53.120;8.764;2024-03-17T01:08:14;102481.47;;;6.81;76.42
54920;BME280;63804;53.120;8.764;2024-03-17T01:10:41;102482.63;;;6.73;76.56
54920;BME280;63804;53.120;8.764;2024-03-17T01:13:08;102472.91;;;6.75;76.70
54920;BME280;63804;53.120;8.764;2024-03-17T01:15:38;102470.69;;;6.61;76.75
54920;BME280;63804;53.120;8.764;2024-03-17T01:18:06;102470.00;;;6.54;76.95
54920;BME280;63804;53.120;8.764;2024-03-17T01:20:34;102469.59;;;6.39;77.47
54920;BME280;63804;53.120;8.764;2024-03-17T01:23:00;102474.13;;;6.33;78.18
54920;BME280;63804;53.120;8.764;2024-03-17T01:25:26;102475.66;;;6.41;77.66
54920;BME280;63804;53.120;8.764;2024-03-17T01:27:53;102468.38;;;6.50;77.73
54920;BME280;63804;53.120;8.764;2024-03-17T01:30:19;102472.25;;;6.68;76.58
54920;BME280;63804;53.120;8.764;2024-03-17T01:32:46;102470.78;;;6.58;76.72
54920;BME280;63804;53.120;8.764;2024-03-17T01:35:12;102472.41;;;6.62;76.80
54920;BME280;63804;53.120;8.764;2024-03-17T01:37:38;102467.00;;;6.67;76.88
54920;BME280;63804;53.120;8.764;2024-03-17T01:40:06;102468.78;;;6.66;76.60
54920;BME280;63804;53.120;8.764;2024-03-17T01:42:37;102460.19;;;6.59;76.88
54920;BME280;63804;53.120;8.764;2024-03-17T01:45:27;102461.66;;;6.70;76.30
54920;BME280;63804;53.120;8.764;2024-03-17T01:47:55;102458.69;;;6.51;77.29
54920;BME280;63804;53.120;8.764;2024-03-17T01:50:25;102457.94;;;6.47;77.10
54920;BME280;63804;53.120;8.764;2024-03-17T01:52:53;102464.19;;;6.43;77.43
54920;BME280;63804;53.120;8.764;2024-03-17T01:55:20;102452.75;;;6.44;77.17
54920;BME280;63804;53.120;8.764;2024-03-17T01:57:50;102454.72;;;6.38;77.24
54920;BME280;63804;53.120;8.764;2024-03-17T02:00:16;102455.16;;;6.22;77.76
54920;BME280;63804;53.120;8.764;2024-03-17T02:02:42;102463.97;;;6.20;78.17
54920;BME280;63804;53.120;8.764;2024-03-17T02:05:09;102464.41;;;6.04;78.97
54920;BME280;63804;53.120;8.764;2024-03-17T02:07:36;102458.56;;;6.26;78.36
54920;BME280;63804;53.120;8.764;2024-03-17T02:10:02;102466.69;;;6.17;78.33
54920;BME280;63804;53.120;8.764;2024-03-17T02:12:31;102463.19;;;6.16;78.51
54920;BME280;63804;53.120;8.764;2024-03-17T02:14:58;102455.19;;;6.21;78.38
54920;BME280;63804;53.120;8.764;2024-03-17T02:17:24;102456.03;;;6.21;78.21
54920;BME280;63804;53.120;8.764;2024-03-17T02:19:51;102456.03;;;6.21;78.20
54920;BME280;63804;53.120;8.764;2024-03-17T02:22:20;102461.13;;;6.27;78.35
54920;BME280;63804;53.120;8.764;2024-03-17T02:24:46;102463.50;;;6.37;78.00
54920;BME280;63804;53.120;8.764;2024-03-17T02:27:12;102467.53;;;6.19;78.00
54920;BME280;63804;53.120;8.764;2024-03-17T02:29:39;102455.56;;;6.07;78.23
54920;BME280;63804;53.120;8.764;2024-03-17T02:32:07;102464.97;;;6.16;78.29
54920;BME280;63804;53.120;8.764;2024-03-17T02:34:37;102473.03;;;6.09;78.59
54920;BME280;63804;53.120;8.764;2024-03-17T02:37:05;102469.13;;;5.90;79.41
54920;BME280;63804;53.120;8.764;2024-03-17T02:39:35;102468.09;;;5.97;79.39
54920;BME280;63804;53.120;8.764;2024-03-17T02:42:03;102461.69;;;6.07;78.61
54920;BME280;63804;53.120;8.764;2024-03-17T02:44:31;102458.22;;;6.07;78.53
54920;BME280;63804;53.120;8.764;2024-03-17T02:46:58;102452.31;;;5.97;79.09
54920;BME280;63804;53.120;8.764;2024-03-17T02:49:25;102454.09;;;5.95;79.24
54920;BME280;63804;53.120;8.764;2024-03-17T02:51:53;102466.81;;;5.78;79.91
54920;BME280;63804;53.120;8.764;2024-03-17T02:54:23;102473.66;;;5.85;79.41
54920;BME280;63804;53.120;8.764;2024-03-17T02:56:49;102473.56;;;5.88;79.31
54920;BME280;63804;53.120;8.764;2024-03-17T02:59:15;102472.22;;;5.72;80.18
54920;BME280;63804;53.120;8.764;2024-03-17T03:01:41;102464.44;;;5.69;78.77
54920;BME280;63804;53.120;8.764;2024-03-17T03:04:07;102461.19;;;5.93;77.85
54920;BME280;63804;53.120;8.764;2024-03-17T03:06:34;102471.34;;;6.07;76.98
54920;BME280;63804;53.120;8.764;2024-03-17T03:09:00;102472.00;;;5.81;76.92
54920;BME280;63804;53.120;8.764;2024-03-17T03:11:26;102471.34;;;5.37;78.42
54920;BME280;63804;53.120;8.764;2024-03-17T03:13:52;102470.22;;;5.11;79.04
54920;BME280;63804;53.120;8.764;2024-03-17T03:16:18;102474.94;;;4.96;80.04
54920;BME280;63804;53.120;8.764;2024-03-17T03:18:45;102474.59;;;5.11;80.17
54920;BME280;63804;53.120;8.764;2024-03-17T03:21:11;102472.88;;;5.10;79.75
54920;BME280;63804;53.120;8.764;2024-03-17T03:23:38;102469.59;;;5.00;80.01
54920;BME280;63804;53.120;8.764;2024-03-17T03:26:05;102469.09;;;4.83;80.34
54920;BME280;63804;53.120;8.764;2024-03-17T03:28:32;102478.63;;;4.87;80.08
54920;BME280;63804;53.120;8.764;2024-03-17T03:30:59;102479.66;;;4.80;80.31
54920;BME280;63804;53.120;8.764;2024-03-17T03:33:25;102478.81;;;4.79;79.92
54920;BME280;63804;53.120;8.764;2024-03-17T03:35:53;102480.22;;;4.94;79.63
54920;BME280;63804;53.120;8.764;2024-03-17T03:38:19;102478.34;;;5.38;77.91
54920;BME280;63804;53.120;8.764;2024-03-17T03:40:45;102483.72;;;5.68;76.04
54920;BME280;63804;53.120;8.764;2024-03-17T03:43:14;102475.13;;;5.27;76.71
54920;BME280;63804;53.120;8.764;2024-03-17T03:45:40;102475.44;;;5.13;77.36
54920;BME280;63804;53.120;8.764;2024-03-17T03:48:08;102476.09;;;5.23;76.63
54920;BME280;63804;53.120;8.764;2024-03-17T03:50:40;102475.91;;;4.92;77.48
54920;BME280;63804;53.120;8.764;2024-03-17T03:53:06;102475.53;;;5.08;77.29
54920;BME280;63804;53.120;8.764;2024-03-17T03:55:32;102467.06;;;5.34;76.44
54920;BME280;63804;53.120;8.764;2024-03-17T03:57:58;102468.50;;;5.46;75.94
54920;BME280;63804;53.120;8.764;2024-03-17T04:00:24;102469.72;;;4.94;77.48
54920;BME280;63804;53.120;8.764;2024-03-17T04:02:55;102472.81;;;4.74;78.81
54920;BME280;63804;53.120;8.764;2024-03-17T04:05:21;102470.03;;;5.19;77.39
54920;BME280;63804;53.120;8.764;2024-03-17T04:07:48;102473.78;;;5.46;76.04
54920;BME280;63804;53.120;8.764;2024-03-17T04:10:15;102483.06;;;5.59;74.96
54920;BME280;63804;53.120;8.764;2024-03-17T04:12:42;102483.81;;;5.29;75.32
54920;BME280;63804;53.120;8.764;2024-03-17T04:15:08;102480.50;;;4.82;77.44
54920;BME280;63804;53.120;8.764;2024-03-17T04:17:37;102474.69;;;4.68;78.62
54920;BME280;63804;53.120;8.764;2024-03-17T04:20:04;102474.53;;;5.14;77.00
54920;BME280;63804;53.120;8.764;2024-03-17T04:22:35;102473.78;;;5.46;75.81
54920;BME280;63804;53.120;8.764;2024-03-17T04:25:01;102483.91;;;5.60;74.77
54920;BME280;63804;53.120;8.764;2024-03-17T04:27:27;102478.72;;;5.57;74.85
54920;BME280;63804;53.120;8.764;2024-03-17T04:29:56;102479.03;;;5.45;75.42
54920;BME280;63804;53.120;8.764;2024-03-17T04:32:23;102488.25;;;5.27;76.48
54920;BME280;63804;53.120;8.764;2024-03-17T04:34:49;102484.16;;;5.51;75.78
54920;BME280;63804;53.120;8.764;2024-03-17T04:37:16;102488.31;;;5.59;74.79
54920;BME280;63804;53.120;8.764;2024-03-17T04:39:43;102487.41;;;5.25;75.87
54920;BME280;63804;53.120;8.764;2024-03-17T04:42:15;102485.38;;;5.36;76.25
54920;BME280;63804;53.120;8.764;2024-03-17T04:44:42;102486.19;;;5.40;75.83
54920;BME280;63804;53.120;8.764;2024-03-17T04:47:09;102488.16;;;5.30;76.20
54920;BME280;63804;53.120;8.764;2024-03-17T04:49:44;102490.22;;;5.17;76.99
54920;BME280;63804;53.120;8.764;2024-03-17T04:52:11;102488.84;;;4.99;78.19
54920;BME280;63804;53.120;8.764;2024-03-17T04:54:38;102482.84;;;5.33;77.60
54920;BME280;63804;53.120;8.764;2024-03-17T04:57:04;102494.81;;;5.45;76.62
54920;BME280;63804;53.120;8.764;2024-03-17T04:59:34;102491.72;;;5.27;78.37
54920;BME280;63804;53.120;8.764;2024-03-17T05:02:00;102480.94;;;5.40;77.98
54920;BME280;63804;53.120;8.764;2024-03-17T05:04:28;102482.66;;;5.75;76.61
54920;BME280;63804;53.120;8.764;2024-03-17T05:06:55;102492.84;;;5.53;76.43
54920;BME280;63804;53.120;8.764;2024-03-17T05:09:21;102498.66;;;5.30;78.07
54920;BME280;63804;53.120;8.764;2024-03-17T05:11:47;102502.47;;;5.54;78.48
54920;BME280;63804;53.120;8.764;2024-03-17T05:14:13;102492.59;;;5.63;77.73
54920;BME280;63804;53.120;8.764;2024-03-17T05:16:39;102488.75;;;5.43;78.23
54920;BME280;63804;53.120;8.764;2024-03-17T05:19:05;102496.38;;;5.52;78.32
54920;BME280;63804;53.120;8.764;2024-03-17T05:21:32;102499.94;;;5.49;78.80
54920;BME280;63804;53.120;8.764;2024-03-17T05:24:01;102508.97;;;5.75;78.84
54920;BME280;63804;53.120;8.764;2024-03-17T05:26:27;102498.50;;;5.72;78.59
54920;BME280;63804;53.120;8.764;2024-03-17T05:28:54;102494.69;;;5.85;78.26
54920;BME280;63804;53.120;8.764;2024-03-17T05:31:20;102498.41;;;5.76;78.17
54920;BME280;63804;53.120;8.764;2024-03-17T05:33:48;102498.09;;;5.53;79.09
54920;BME280;63804;53.120;8.764;2024-03-17T05:36:14;102501.84;;;5.78;78.39
54920;BME280;63804;53.120;8.764;2024-03-17T05:38:40;102503.16;;;5.62;78.33
54920;BME280;63804;53.120;8.764;2024-03-17T05:41:08;102496.19;;;5.61;78.53
54920;BME280;63804;53.120;8.764;2024-03-17T05:43:36;102496.75;;;5.36;79.51
54920;BME280;63804;53.120;8.764;2024-03-17T05:46:09;102504.03;;;5.25;80.28
54920;BME280;63804;53.120;8.764;2024-03-17T05:48:39;102505.28;;;5.46;79.93
54920;BME280;63804;53.120;8.764;2024-03-17T05:51:12;102502.84;;;5.38;80.01
54920;BME280;63804;53.120;8.764;2024-03-17T05:53:39;102501.34;;;5.64;80.06
54920;BME280;63804;53.120;8.764;2024-03-17T05:56:10;102511.59;;;5.75;79.27
54920;BME280;63804;53.120;8.764;2024-03-17T05:58:39;102513.94;;;5.85;79.02
54920;BME280;63804;53.120;8.764;2024-03-17T06:01:05;102517.34;;;5.89;78.15
54920;BME280;63804;53.120;8.764;2024-03-17T06:03:35;102513.81;;;5.90;78.17
54920;BME280;63804;53.120;8.764;2024-03-17T06:06:02;102520.56;;;6.02;77.71
54920;BME280;63804;53.120;8.764;2024-03-17T06:08:29;102515.44;;;5.60;79.58
54920;BME280;63804;53.120;8.764;2024-03-17T06:10:55;102521.03;;;5.82;78.72
54920;BME280;63804;53.120;8.764;2024-03-17T06:13:29;102518.00;;;5.99;77.77
54920;BME280;63804;53.120;8.764;2024-03-17T06:15:55;102514.53;;;5.62;79.04
54920;BME280;63804;53.120;8.764;2024-03-17T06:18:26;102518.91;;;5.62;79.81
54920;BME280;63804;53.120;8.764;2024-03-17T06:20:53;102522.53;;;5.56;80.22
54920;BME280;63804;53.120;8.764;2024-03-17T06:23:19;102517.00;;;5.69;80.22
54920;BME280;63804;53.120;8.764;2024-03-17T06:25:47;102522.47;;;5.95;79.16
54920;BME280;63804;53.120;8.764;2024-03-17T06:28:14;102518.28;;;5.88;79.44
54920;BME280;63804;53.120;8.764;2024-03-17T06:30:42;102513.59;;;6.01;78.80
54920;BME280;63804;53.120;8.764;2024-03-17T06:33:12;102513.53;;;6.02;78.49
54920;BME280;63804;53.120;8.764;2024-03-17T06:35:39;102501.88;;;6.13;78.31
54920;BME280;63804;53.120;8.764;2024-03-17T06:38:05;102502.03;;;6.06;78.10
54920;BME280;63804;53.120;8.764;2024-03-17T06:40:36;102509.16;;;6.03;77.60
54920;BME280;63804;53.120;8.764;2024-03-17T06:43:03;102510.41;;;5.86;77.42
54920;BME280;63804;53.120;8.764;2024-03-17T06:45:29;102507.84;;;5.83;77.64
54920;BME280;63804;53.120;8.764;2024-03-17T06:47:59;102514.00;;;5.84;76.78
54920;BME280;63804;53.120;8.764;2024-03-17T06:50:25;102505.91;;;5.93;76.48
54920;BME280;63804;53.120;8.764;2024-03-17T06:52:51;102511.59;;;5.75;76.74
54920;BME280;63804;53.120;8.764;2024-03-17T06:55:20;102506.41;;;5.72;77.08
54920;BME280;63804;53.120;8.764;2024-03-17T06:57:50;102509.66;;;5.81;76.77
54920;BME280;63804;53.120;8.764;2024-03-17T07:00:17;102519.41;;;5.78;77.05
54920;BME280;63804;53.120;8.764;2024-03-17T07:02:44;102521.09;;;5.80;76.86
54920;BME280;63804;53.120;8.764;2024-03-17T07:05:14;102523.47;;;5.90;77.00
54920;BME280;63804;53.120;8.764;2024-03-17T07:07:43;102508.75;;;5.82;76.95
54920;BME280;63804;53.120;8.764;2024-03-17T07:10:10;102516.97;;;5.70;77.64
54920;BME280;63804;53.120;8.764;2024-03-17T07:12:37;102508.69;;;5.85;77.76
54920;BME280;63804;53.120;8.764;2024-03-17T07:15:05;102513.91;;;6.21;76.86
54920;BME280;63804;53.120;8.764;2024-03-17T07:17:31;102515.38;;;6.31;76.28
54920;BME280;63804;53.120;8.764;2024-03-17T07:20:00;102520.59;;;6.33;76.35
54920;BME280;63804;53.120;8.764;2024-03-17T07:22:27;102514.34;;;6.37;76.64
54920;BME280;63804;53.120;8.764;2024-03-17T07:24:54;102526.34;;;6.47;76.79
54920;BME280;63804;53.120;8.764;2024-03-17T07:27:27;102516.09;;;6.38;76.85
54920;BME280;63804;53.120;8.764;2024-03-17T07:29:53;102519.59;;;6.37;77.69
54920;BME280;63804;53.120;8.764;2024-03-17T07:32:19;102520.72;;;6.59;77.49
54920;BME280;63804;53.120;8.764;2024-03-17T07:34:45;102517.38;;;6.54;77.58
54920;BME280;63804;53.120;8.764;2024-03-17T07:37:11;102522.38;;;6.64;77.59
54920;BME280;63804;53.120;8.764;2024-03-17T07:39:37;102521.47;;;6.65;77.83
54920;BME280;63804;53.120;8.764;2024-03-17T07:42:04;102518.53;;;6.75;77.53
54920;BME280;63804;53.120;8.764;2024-03-17T07:44:30;102525.00;;;6.64;78.10
54920;BME280;63804;53.120;8.764;2024-03-17T07:47:01;102528.25;;;6.73;78.47
54920;BME280;63804;53.120;8.764;2024-03-17T07:49:27;102532.81;;;6.96;77.86
54920;BME280;63804;53.120;8.764;2024-03-17T07:51:53;102538.47;;;7.14;77.31
54920;BME280;63804;53.120;8.764;2024-03-17T07:54:20;102529.88;;;7.35;76.60
54920;BME280;63804;53.120;8.764;2024-03-17T07:56:47;102528.09;;;7.36;76.66
54920;BME280;63804;53.120;8.764;2024-03-17T07:59:13;102534.03;;;7.42;76.62
54920;BME280;63804;53.120;8.764;2024-03-17T08:01:42;102526.41;;;7.61;76.41
54920;BME280;63804;53.120;8.764;2024-03-17T08:04:08;102535.53;;;7.77;75.89
54920;BME280;63804;53.120;8.764;2024-03-17T08:06:34;102533.91;;;7.73;76.19
54920;BME280;63804;53.120;8.764;2024-03-17T08:09:00;102534.50;;;7.81;76.19
54920;BME280;63804;53.120;8.764;2024-03-17T08:11:27;102545.13;;;7.80;76.26
54920;BME280;63804;53.120;8.764;2024-03-17T08:13:53;102533.63;;;7.82;76.23
54920;BME280;63804;53.120;8.764;2024-03-17T08:16:21;102536.78;;;7.92;76.07
54920;BME280;63804;53.120;8.764;2024-03-17T08:18:47;102530.66;;;7.92;75.99
54920;BME280;63804;53.120;8.764;2024-03-17T08:21:13;102542.31;;;8.11;75.70
54920;BME280;63804;53.120;8.764;2024-03-17T08:23:39;102536.06;;;8.14;75.28
54920;BME280;63804;53.120;8.764;2024-03-17T08:26:09;102526.28;;;8.17;75.15
54920;BME280;63804;53.120;8.764;2024-03-17T08:28:35;102529.16;;;8.35;74.63
54920;BME280;63804;53.120;8.764;2024-03-17T08:31:02;102531.44;;;8.45;74.55
54920;BME280;63804;53.120;8.764;2024-03-17T08:33:29;102528.34;;;8.81;73.64
54920;BME280;63804;53.120;8.764;2024-03-17T08:35:57;102527.84;;;8.95;72.86
54920;BME280;63804;53.120;8.764;2024-03-17T08:38:24;102535.38;;;9.06;72.29
54920;BME280;63804;53.120;8.764;2024-03-17T08:40:51;102529.97;;;9.09;72.28
54920;BME280;63804;53.120;8.764;2024-03-17T08:43:17;102518.91;;;9.21;71.68
54920;BME280;63804;53.120;8.764;2024-03-17T08:45:44;102512.38;;;9.30;71.02
54920;BME280;63804;53.120;8.764;2024-03-17T08:48:11;102515.56;;;9.38;70.73
54920;BME280;63804;53.120;8.764;2024-03-17T08:50:37;102512.03;;;9.39;70.98
54920;BME280;63804;53.120;8.764;2024-03-17T08:53:03;102514.25;;;9.27;70.90
54920;BME280;63804;53.120;8.764;2024-03-17T08:55:29;102515.34;;;9.22;70.98
54920;BME280;63804;53.120;8.764;2024-03-17T08:57:55;102516.44;;;9.38;70.17
54920;BME280;63804;53.120;8.764;2024-03-17T09:00:22;102518.31;;;9.36;69.96
54920;BME280;63804;53.120;8.764;2024-03-17T09:02:48;102519.03;;;9.40;69.93
54920;BME280;63804;53.120;8.764;2024-03-17T09:05:14;102518.22;;;9.60;68.60
54920;BME280;63804;53.120;8.764;2024-03-17T09:07:40;102520.56;;;9.67;68.44
54920;BME280;63804;53.120;8.764;2024-03-17T09:10:07;102513.59;;;9.65;68.85
54920;BME280;63804;53.120;8.764;2024-03-17T09:12:34;102510.03;;;9.66;68.39
54920;BME280;63804;53.120;8.764;2024-03-17T09:15:02;102503.72;;;9.90;67.23
54920;BME280;63804;53.120;8.764;2024-03-17T09:17:28;102511.53;;;9.93;66.12
54920;BME280;63804;53.120;8.764;2024-03-17T09:19:54;102502.03;;;9.88;65.48
54920;BME280;63804;53.120;8.764;2024-03-17T09:22:20;102512.81;;;9.83;66.15
54920;BME280;63804;53.120;8.764;2024-03-17T09:24:46;102515.28;;;9.88;65.25
54920;BME280;63804;53.120;8.764;2024-03-17T09:27:13;102517.13;;;9.86;65.80
54920;BME280;63804;53.120;8.764;2024-03-17T09:29:46;102517.50;;;9.76;65.81
54920;BME280;63804;53.120;8.764;2024-03-17T09:32:12;102522.47;;;9.84;65.52
54920;BME280;63804;53.120;8.764;2024-03-17T09:34:47;102519.50;;;9.92;64.23
54920;BME280;63804;53.120;8.764;2024-03-17T09:37:15;102520.75;;;9.83;64.68
54920;BME280;63804;53.120;8.764;2024-03-17T09:39:42;102523.44;;;10.04;64.13
54920;BME280;63804;53.120;8.764;2024-03-17T09:42:17;102516.75;;;10.15;63.18
54920;BME280;63804;53.120;8.764;2024-03-17T09:44:48;102518.47;;;10.16;63.60
54920;BME280;63804;53.120;8.764;2024-03-17T09:47:18;102523.16;;;10.30;63.31
54920;BME280;63804;53.120;8.764;2024-03-17T09:49:47;102515.53;;;10.22;63.10
54920;BME280;63804;53.120;8.764;2024-03-17T09:52:23;102519.78;;;10.06;63.01
54920;BME280;63804;53.120;8.764;2024-03-17T09:54:57;102512.25;;;9.97;63.21
54920;BME280;63804;53.120;8.764;2024-03-17T09:57:25;102528.13;;;10.17;63.73
54920;BME280;63804;53.120;8.764;2024-03-17T09:59:55;102522.13;;;10.34;62.80
54920;BME280;63804;53.120;8.764;2024-03-17T10:02:22;102515.78;;;10.38;62.61
54920;BME280;63804;53.120;8.764;2024-03-17T10:04:48;102527.41;;;10.55;61.91
54920;BME280;63804;53.120;8.764;2024-03-17T10:07:14;102524.09;;;10.49;61.69
54920;BME280;63804;53.120;8.764;2024-03-17T10:09:45;102521.72;;;10.43;61.91
54920;BME280;63804;53.120;8.764;2024-03-17T10:12:30;102517.72;;;10.54;60.93
54920;BME280;63804;53.120;8.764;2024-03-17T10:15:00;102515.47;;;10.44;61.93
54920;BME280;63804;53.120;8.764;2024-03-17T10:17:33;102503.69;;;10.52;60.91
54920;BME280;63804;53.120;8.764;2024-03-17T10:20:17;102514.50;;;10.47;60.53
54920;BME280;63804;53.120;8.764;2024-03-17T10:23:05;102512.97;;;10.41;60.79
54920;BME280;63804;53.120;8.764;2024-03-17T10:25:42;102510.75;;;10.32;61.50
54920;BME280;63804;53.120;8.764;2024-03-17T10:28:12;102516.75;;;10.36;61.02
54920;BME280;63804;53.120;8.764;2024-03-17T10:30:39;102521.59;;;10.46;60.88
54920;BME280;63804;53.120;8.764;2024-03-17T10:33:06;102510.34;;;10.60;60.19
54920;BME280;63804;53.120;8.764;2024-03-17T10:35:37;102511.31;;;10.97;58.98
54920;BME280;63804;53.120;8.764;2024-03-17T10:38:09;102510.00;;;11.06;58.40
54920;BME280;63804;53.120;8.764;2024-03-17T10:40:35;102510.31;;;11.00;59.19
54920;BME280;63804;53.120;8.764;2024-03-17T10:43:04;102502.84;;;11.08;58.71
54920;BME280;63804;53.120;8.764;2024-03-17T10:45:32;102506.34;;;11.08;58.00
54920;BME280;63804;53.120;8.764;2024-03-17T10:48:06;102507.66;;;11.18;57.86
54920;BME280;63804;53.120;8.764;2024-03-17T10:50:38;102492.03;;;11.12;57.50
54920;BME280;63804;53.120;8.764;2024-03-17T10:53:07;102498.63;;;11.04;57.75
54920;BME280;63804;53.120;8.764;2024-03-17T10:55:46;102506.50;;;11.05;57.81
54920;BME280;63804;53.120;8.764;2024-03-17T10:58:29;102500.69;;;10.97;57.90
54920;BME280;63804;53.120;8.764;2024-03-17T11:01:01;102495.69;;;10.91;58.33
54920;BME280;63804;53.120;8.764;2024-03-17T11:03:31;102485.59;;;10.80;58.52
54920;BME280;63804;53.120;8.764;2024-03-17T11:05:58;102489.75;;;10.67;58.43
54920;BME280;63804;53.120;8.764;2024-03-17T11:08:26;102488.53;;;10.74;58.19
54920;BME280;63804;53.120;8.764;2024-03-17T11:10:52;102479.84;;;10.70;57.71
54920;BME280;63804;53.120;8.764;2024-03-17T11:13:28;102483.22;;;10.74;56.64
54920;BME280;63804;53.120;8.764;2024-03-17T11:15:55;102474.84;;;10.64;57.68
54920;BME280;63804;53.120;8.764;2024-03-17T11:24:00;102466.06;;;11.19;55.45
54920;BME280;63804;53.120;8.764;2024-03-17T11:26:29;102458.41;;;11.13;56.24
54920;BME280;63804;53.120;8.764;2024-03-17T11:28:56;102469.94;;;11.12;56.81
54920;BME280;63804;53.120;8.764;2024-03-17T11:34:03;102469.97;;;11.29;56.37
54920;BME280;63804;53.120;8.764;2024-03-17T11:36:38;102463.72;;;11.49;55.51
54920;BME280;63804;53.120;8.764;2024-03-17T11:39:04;102465.75;;;11.25;53.93
54920;BME280;63804;53.120;8.764;2024-03-17T11:41:44;102465.38;;;11.33;55.81
54920;BME280;63804;53.120;8.764;2024-03-17T11:49:38;102468.00;;;11.86;53.95
54920;BME280;63804;53.120;8.764;2024-03-17T11:52:08;102474.97;;;11.71;54.18
54920;BME280;63804;53.120;8.764;2024-03-17T11:54:37;102471.81;;;11.81;54.68
54920;BME280;63804;53.120;8.764;2024-03-17T11:57:05;102470.75;;;11.85;54.33
54920;BME280;63804;53.120;8.764;2024-03-17T11:59:34;102483.19;;;11.83;53.76
54920;BME280;63804;53.120;8.764;2024-03-17T12:02:00;102480.38;;;11.87;53.86
54920;BME280;63804;53.120;8.764;2024-03-17T12:04:29;102474.50;;;11.98;53.95
54920;BME280;63804;53.120;8.764;2024-03-17T12:06:56;102468.72;;;12.07;53.36
54920;BME280;63804;53.120;8.764;2024-03-17T12:09:27;102460.50;;;12.12;53.75
54920;BME280;63804;53.120;8.764;2024-03-17T12:12:00;102443.38;;;12.17;53.44
54920;BME280;63804;53.120;8.764;2024-03-17T12:14:27;102437.44;;;12.12;53.23
54920;BME280;63804;53.120;8.764;2024-03-17T12:17:01;102439.44;;;12.25;53.69
54920;BME280;63804;53.120;8.764;2024-03-17T12:19:28;102443.16;;;12.38;53.76
54920;BME280;63804;53.120;8.764;2024-03-17T12:21:59;102445.56;;;12.42;53.33
54920;BME280;63804;53.120;8.764;2024-03-17T12:24:30;102439.91;;;12.33;52.95
54920;BME280;63804;53.120;8.764;2024-03-17T12:26:58;102439.81;;;12.34;52.64
54920;BME280;63804;53.120;8.764;2024-03-17T12:29:30;102438.16;;;12.32;52.94
54920;BME280;63804;53.120;8.764;2024-03-17T12:32:02;102445.28;;;12.31;52.20
54920;BME280;63804;53.120;8.764;2024-03-17T12:34:32;102443.31;;;12.35;52.40
54920;BME280;63804;53.120;8.764;2024-03-17T12:37:00;102434.78;;;12.46;52.43
54920;BME280;63804;53.120;8.764;2024-03-17T12:39:29;102435.47;;;12.49;52.16
54920;BME280;63804;53.120;8.764;2024-03-17T12:42:15;102428.94;;;12.55;51.38
54920;BME280;63804;53.120;8.764;2024-03-17T12:44:59;102418.03;;;12.43;51.86
54920;BME280;63804;53.120;8.764;2024-03-17T12:47:29;102426.13;;;12.42;52.08
54920;BME280;63804;53.120;8.764;2024-03-17T12:49:59;102422.88;;;12.37;52.27
54920;BME280;63804;53.120;8.764;2024-03-17T12:52:31;102429.75;;;12.24;52.25
54920;BME280;63804;53.120;8.764;2024-03-17T12:55:06;102421.00;;;12.06;52.60
54920;BME280;63804;53.120;8.764;2024-03-17T13:00:45;102418.97;;;11.93;53.32
54920;BME280;63804;53.120;8.764;2024-03-17T13:03:29;102417.41;;;12.07;52.07
54920;BME280;63804;53.120;8.764;2024-03-17T13:05:58;102413.09;;;12.04;52.29
54920;BME280;63804;53.120;8.764;2024-03-17T13:08:25;102413.53;;;12.12;52.10
54920;BME280;63804;53.120;8.764;2024-03-17T13:10:51;102411.97;;;12.26;51.12
54920;BME280;63804;53.120;8.764;2024-03-17T13:13:17;102409.03;;;12.14;50.85
54920;BME280;63804;53.120;8.764;2024-03-17T13:15:43;102404.59;;;12.31;51.17
54920;BME280;63804;53.120;8.764;2024-03-17T13:18:16;102399.81;;;12.53;50.83
54920;BME280;63804;53.120;8.764;2024-03-17T13:20:44;102393.72;;;12.51;50.84